createdAt,value
2022-10-07T00:01:31.908Z,100.00
2022-10-07T00:03:34.926Z,100.00
2022-10-07T00:05:37.167Z,100.00
2022-10-07T00:07:39.276Z,100.00
2022-10-07T00:09:41.782Z,100.00
2022-10-07T00:11:43.727Z,100.00
2022-10-07T00:13:47.829Z,100.00
2022-10-07T00:15:49.910Z,100.00
2022-10-07T00:17:52.053Z,100.00
2022-10-07T00:19:54.163Z,100.00
2022-10-07T00:21:56.370Z,100.00
2022-10-07T00:23:58.927Z,100.00
2022-10-07T00:26:02.886Z,100.00
2022-10-07T00:28:05.777Z,100.00
2022-10-07T00:30:10.102Z,100.00
2022-10-07T00:32:12.241Z,100.00
2022-10-07T00:34:14.920Z,100.00
2022-10-07T00:36:23.867Z,100.00
2022-10-07T00:38:27.003Z,100.00
2022-10-07T00:40:29.082Z,100.00
2022-10-07T00:42:32.511Z,100.00
2022-10-07T00:44:42.151Z,100.00
2022-10-07T00:46:44.260Z,100.00
2022-10-07T00:48:47.064Z,100.00
2022-10-07T00:50:52.811Z,100.00
2022-10-07T00:52:59.429Z,100.00
2022-10-07T00:55:06.808Z,100.00
2022-10-07T00:57:09.667Z,100.00
2022-10-07T00:59:14.352Z,100.00
2022-10-07T01:01:18.462Z,100.00
2022-10-07T01:03:21.233Z,100.00
2022-10-07T01:05:23.378Z,100.00
2022-10-07T01:07:26.894Z,100.00
2022-10-07T01:09:29.123Z,100.00
2022-10-07T01:12:03.311Z,100.00
2022-10-07T01:14:16.730Z,100.00
2022-10-07T01:16:52.113Z,100.00
2022-10-07T01:19:06.463Z,100.00
2022-10-07T01:21:33.976Z,100.00
2022-10-07T01:23:56.534Z,100.00
2022-10-07T01:26:27.625Z,100.00
2022-10-07T01:28:40.291Z,100.00
2022-10-07T01:30:50.478Z,100.00
2022-10-07T01:33:01.567Z,100.00
2022-10-07T01:35:10.239Z,100.00
2022-10-07T01:37:18.055Z,100.00
2022-10-07T01:39:27.781Z,100.00
2022-10-07T01:41:31.676Z,100.00
2022-10-07T01:43:34.603Z,100.00
2022-10-07T01:45:41.530Z,100.00
2022-10-07T01:47:44.959Z,100.00
2022-10-07T01:49:47.411Z,100.00
2022-10-07T01:52:14.505Z,100.00
2022-10-07T01:54:22.754Z,100.00
2022-10-07T01:56:36.191Z,100.00
2022-10-07T01:59:32.528Z,100.00
2022-10-07T02:01:57.184Z,100.00
2022-10-07T02:04:20.244Z,100.00
2022-10-07T02:06:36.970Z,100.00
2022-10-07T02:08:50.812Z,100.00
2022-10-07T02:11:11.708Z,100.00
2022-10-07T02:13:29.043Z,100.00
2022-10-07T02:15:45.260Z,100.00
2022-10-07T02:17:52.483Z,100.00
2022-10-07T02:19:56.734Z,100.00
2022-10-07T02:22:02.918Z,100.00
2022-10-07T02:24:11.055Z,100.00
2022-10-07T02:26:17.054Z,100.00
2022-10-07T02:28:23.848Z,100.00
2022-10-07T02:30:27.639Z,100.00
2022-10-07T02:32:31.749Z,100.00
2022-10-07T02:34:36.054Z,100.00
2022-10-07T02:36:44.728Z,100.00
2022-10-07T02:38:47.198Z,100.00
2022-10-07T02:40:49.128Z,100.00
2022-10-07T02:42:59.833Z,100.00
2022-10-07T02:45:18.215Z,100.00
2022-10-07T02:47:51.572Z,100.00
2022-10-07T02:49:54.361Z,100.00
2022-10-07T02:52:06.968Z,100.00
2022-10-07T02:54:10.738Z,100.00
2022-10-07T02:56:13.388Z,100.00
2022-10-07T02:58:17.347Z,100.00
2022-10-07T03:00:20.537Z,100.00
2022-10-07T03:02:46.545Z,100.00
2022-10-07T03:04:49.156Z,100.00
2022-10-07T03:06:51.496Z,100.00
2022-10-07T03:08:53.599Z,100.00
2022-10-07T03:10:55.676Z,100.00
2022-10-07T03:12:59.062Z,100.00
2022-10-07T03:15:01.535Z,100.00
2022-10-07T03:17:05.341Z,100.00
2022-10-07T03:19:07.445Z,100.00
2022-10-07T03:21:18.731Z,100.00
2022-10-07T03:23:26.575Z,100.00
2022-10-07T03:25:28.686Z,100.00
2022-10-07T03:27:31.151Z,100.00
2022-10-07T03:29:37.190Z,100.00
2022-10-07T03:31:42.477Z,100.00
2022-10-07T03:33:44.724Z,100.00
2022-10-07T03:35:47.258Z,100.00
2022-10-07T03:37:49.305Z,100.00
2022-10-07T03:39:52.969Z,100.00
2022-10-07T03:41:57.579Z,100.00
2022-10-07T03:44:00.428Z,100.00
2022-10-07T03:46:04.437Z,100.00
2022-10-07T03:48:09.262Z,100.00
2022-10-07T03:50:11.293Z,100.00
2022-10-07T03:52:13.699Z,100.00
2022-10-07T03:54:16.098Z,100.00
2022-10-07T03:56:18.281Z,100.00
2022-10-07T03:58:20.498Z,100.00
2022-10-07T04:00:24.969Z,100.00
2022-10-07T04:02:30.263Z,100.00
2022-10-07T04:04:32.605Z,100.00
2022-10-07T04:06:34.901Z,100.00
2022-10-07T04:08:41.352Z,100.00
2022-10-07T04:10:44.192Z,100.00
2022-10-07T04:12:49.114Z,100.00
2022-10-07T04:14:51.599Z,100.00
2022-10-07T04:16:53.606Z,100.00
2022-10-07T04:18:56.629Z,100.00
2022-10-07T04:21:01.242Z,100.00
2022-10-07T04:23:05.770Z,100.00
2022-10-07T04:25:30.074Z,100.00
2022-10-07T04:27:50.771Z,96.75
2022-10-07T04:29:53.919Z,82.08
2022-10-07T04:31:59.318Z,71.67
2022-10-07T04:34:01.930Z,66.25
2022-10-07T04:36:10.676Z,66.42
2022-10-07T04:38:33.201Z,62.80
2022-10-07T04:40:45.803Z,57.34
2022-10-07T04:43:07.809Z,54.42
2022-10-07T04:45:10.647Z,49.56
2022-10-07T04:47:15.327Z,45.30
2022-10-07T04:49:17.681Z,42.75
2022-10-07T04:51:19.623Z,38.02
2022-10-07T04:53:25.001Z,38.96
2022-10-07T04:55:33.297Z,36.34
2022-10-07T04:57:38.665Z,35.14
2022-10-07T04:59:43.027Z,34.86
2022-10-07T05:01:48.977Z,33.05
2022-10-07T05:03:52.589Z,32.55
2022-10-07T05:06:05.808Z,31.75
2022-10-07T05:08:15.073Z,30.93
2022-10-07T05:10:19.999Z,29.82
2022-10-07T05:12:26.017Z,30.08
2022-10-07T05:14:29.162Z,32.39
2022-10-07T05:16:34.121Z,36.64
2022-10-07T05:18:39.674Z,41.60
2022-10-07T05:20:47.646Z,45.87
2022-10-07T05:22:50.256Z,49.68
2022-10-07T05:24:53.077Z,52.42
2022-10-07T05:26:55.313Z,54.39
2022-10-07T05:28:57.664Z,55.99
2022-10-07T05:31:12.167Z,59.30
2022-10-07T05:33:16.659Z,61.61
2022-10-07T05:35:19.480Z,63.24
2022-10-07T05:37:21.605Z,64.98
2022-10-07T05:39:23.881Z,65.35
2022-10-07T05:41:45.790Z,66.30
2022-10-07T05:43:51.251Z,67.04
2022-10-07T05:46:01.371Z,68.39
2022-10-07T05:48:05.602Z,68.18
2022-10-07T05:50:08.415Z,66.65
2022-10-07T05:52:10.860Z,65.43
2022-10-07T05:54:13.923Z,65.52
2022-10-07T05:56:22.472Z,60.64
2022-10-07T05:58:26.667Z,57.10
2022-10-07T06:00:29.956Z,56.82
2022-10-07T06:02:32.790Z,53.68
2022-10-07T06:04:35.512Z,52.52
2022-10-07T06:06:38.698Z,53.29
2022-10-07T06:08:44.338Z,54.52
2022-10-07T06:11:05.457Z,55.43
2022-10-07T06:13:09.180Z,56.77
2022-10-07T06:15:14.198Z,57.99
2022-10-07T06:17:19.413Z,58.75
2022-10-07T06:19:23.223Z,60.19
2022-10-07T06:21:29.072Z,61.22
2022-10-07T06:23:35.991Z,62.89
2022-10-07T06:25:39.404Z,63.91
2022-10-07T06:27:53.462Z,65.52
2022-10-07T06:30:08.406Z,66.32
2022-10-07T06:32:11.076Z,67.13
2022-10-07T06:34:14.485Z,67.70
2022-10-07T06:36:17.558Z,67.30
2022-10-07T06:38:21.516Z,66.86
2022-10-07T06:40:23.950Z,66.61
2022-10-07T06:42:27.131Z,67.33
2022-10-07T06:44:54.002Z,67.33
2022-10-07T06:46:58.164Z,68.20
2022-10-07T06:49:01.168Z,68.06
2022-10-07T06:51:03.650Z,68.47
2022-10-07T06:53:07.569Z,68.81
2022-10-07T06:55:09.983Z,69.26
2022-10-07T06:57:33.507Z,69.67
2022-10-07T06:59:35.321Z,70.23
2022-10-07T07:01:46.188Z,70.65
2022-10-07T07:03:48.589Z,70.56
2022-10-07T07:05:57.172Z,69.89
2022-10-07T07:08:04.629Z,68.48
2022-10-07T07:10:07.639Z,68.15
2022-10-07T07:12:12.921Z,68.93
2022-10-07T07:14:19.228Z,68.86
2022-10-07T07:16:27.683Z,68.83
2022-10-07T07:18:30.444Z,68.58
2022-10-07T07:20:37.365Z,68.05
2022-10-07T07:22:41.519Z,67.78
2022-10-07T07:24:43.704Z,68.51
2022-10-07T07:26:46.696Z,68.61
2022-10-07T07:28:59.224Z,69.11
2022-10-07T07:31:11.306Z,69.16
2022-10-07T07:33:13.730Z,69.10
2022-10-07T07:35:16.216Z,69.30
2022-10-07T07:37:18.381Z,69.44
2022-10-07T07:39:24.629Z,69.04
2022-10-07T07:41:36.413Z,69.33
2022-10-07T07:43:38.643Z,68.93
2022-10-07T07:45:40.856Z,69.57
2022-10-07T07:47:43.871Z,69.50
2022-10-07T07:49:46.215Z,69.64
2022-10-07T07:51:56.228Z,68.76
2022-10-07T07:54:03.598Z,68.88
2022-10-07T07:56:06.109Z,68.88
2022-10-07T07:58:11.765Z,68.28
2022-10-07T08:00:16.342Z,68.42
2022-10-07T08:02:32.111Z,68.41
2022-10-07T08:04:34.066Z,68.36
2022-10-07T08:06:37.779Z,68.63
2022-10-07T08:08:43.618Z,68.88
2022-10-07T08:10:51.687Z,69.30
2022-10-07T08:12:55.089Z,69.10
2022-10-07T08:14:58.173Z,68.74
2022-10-07T08:17:00.358Z,68.76
2022-10-07T08:19:03.016Z,68.54
2022-10-07T08:21:06.167Z,67.71
2022-10-07T08:23:08.756Z,67.15
2022-10-07T08:25:11.350Z,66.50
2022-10-07T08:27:17.347Z,66.43
2022-10-07T08:29:21.224Z,66.31
2022-10-07T08:31:27.464Z,65.79
2022-10-07T08:33:33.509Z,65.42
2022-10-07T08:35:35.592Z,65.20
2022-10-07T08:37:37.715Z,65.79
2022-10-07T08:39:39.795Z,65.75
2022-10-07T08:42:25.168Z,65.21
2022-10-07T08:44:40.031Z,66.00
2022-10-07T08:47:15.002Z,65.81
2022-10-07T08:49:24.999Z,66.24
2022-10-07T08:51:42.547Z,65.57
2022-10-07T08:53:47.543Z,66.10
2022-10-07T08:55:54.505Z,66.08
2022-10-07T08:58:08.724Z,64.78
2022-10-07T09:00:13.863Z,64.42
2022-10-07T09:02:45.278Z,63.74
2022-10-07T09:05:28.569Z,63.73
2022-10-07T09:07:32.779Z,63.83
2022-10-07T09:09:38.560Z,64.20
2022-10-07T09:11:44.262Z,64.05
2022-10-07T09:13:52.811Z,63.75
2022-10-07T09:16:09.016Z,63.46
2022-10-07T09:18:19.699Z,63.80
2022-10-07T09:20:31.967Z,64.23
2022-10-07T09:22:39.729Z,64.01
2022-10-07T09:26:51.372Z,62.44
2022-10-07T09:28:53.871Z,62.13
2022-10-07T09:31:04.194Z,61.86
2022-10-07T09:33:13.704Z,62.17
2022-10-07T09:35:18.922Z,62.46
2022-10-07T09:37:24.322Z,62.71
2022-10-07T09:39:27.482Z,62.22
2022-10-07T09:41:35.645Z,62.63
2022-10-07T09:43:43.293Z,61.50
2022-10-07T09:45:47.146Z,61.19
2022-10-07T09:48:07.773Z,60.87
2022-10-07T09:50:39.037Z,60.72
2022-10-07T09:52:55.976Z,60.23
2022-10-07T09:55:34.931Z,60.03
2022-10-07T09:57:37.127Z,60.57
2022-10-07T09:59:40.337Z,60.64
2022-10-07T10:01:48.738Z,60.39
2022-10-07T10:03:58.362Z,60.13
2022-10-07T10:06:02.791Z,60.09
2022-10-07T10:08:27.115Z,59.93
2022-10-07T10:10:39.493Z,59.95
2022-10-07T10:12:51.856Z,60.38
2022-10-07T10:15:00.632Z,60.79
2022-10-07T10:17:04.822Z,61.08
2022-10-07T10:19:27.825Z,61.23
2022-10-07T10:21:36.931Z,61.47
2022-10-07T10:23:44.147Z,62.03
2022-10-07T10:26:18.245Z,62.49
2022-10-07T10:28:47.714Z,62.66
2022-10-07T10:30:59.128Z,61.74
2022-10-07T10:33:14.866Z,61.97
2022-10-07T10:35:20.366Z,62.48
2022-10-07T10:37:30.259Z,62.33
2022-10-07T10:39:52.464Z,62.62
2022-10-07T10:41:58.239Z,62.22
2022-10-07T10:44:31.171Z,61.86
2022-10-07T10:46:33.205Z,61.82
2022-10-07T10:48:46.019Z,62.33
2022-10-07T10:51:31.953Z,62.47
2022-10-07T10:54:07.061Z,61.82
2022-10-07T10:56:23.600Z,61.40
2022-10-07T10:59:09.668Z,60.60
2022-10-07T11:01:35.104Z,60.35
2022-10-07T11:03:37.206Z,60.49
2022-10-07T11:05:42.667Z,60.18
2022-10-07T11:07:50.681Z,59.21
2022-10-07T11:10:00.780Z,59.03
2022-10-07T11:12:07.106Z,59.15
2022-10-07T11:14:20.283Z,58.53
2022-10-07T11:16:31.033Z,59.08
2022-10-07T11:18:39.651Z,59.56
2022-10-07T11:20:48.228Z,59.40
2022-10-07T11:23:05.611Z,59.77
2022-10-07T11:25:24.330Z,58.82
2022-10-07T11:27:33.544Z,58.55
2022-10-07T11:29:35.673Z,58.60
2022-10-07T11:31:42.654Z,58.82
2022-10-07T11:34:23.293Z,58.04
2022-10-07T11:36:40.011Z,58.40
2022-10-07T11:38:42.921Z,58.94
2022-10-07T11:40:54.981Z,58.06
2022-10-07T11:43:06.302Z,58.42
2022-10-07T11:45:33.621Z,58.26
2022-10-07T11:47:45.986Z,59.45
2022-10-07T11:49:58.006Z,59.45
2022-10-07T11:52:06.034Z,60.10
2022-10-07T11:54:14.412Z,60.03
2022-10-07T11:56:27.202Z,60.25
2022-10-07T11:58:36.005Z,60.64
2022-10-07T12:00:40.568Z,60.44
2022-10-07T12:02:47.280Z,60.32
2022-10-07T12:04:49.551Z,61.09
2022-10-07T12:07:28.976Z,61.32
2022-10-07T12:09:54.459Z,61.48
2022-10-07T12:11:57.086Z,61.49
2022-10-07T12:14:41.009Z,61.47
2022-10-07T12:16:54.436Z,61.07
2022-10-07T12:19:09.877Z,61.37
2022-10-07T12:21:12.471Z,61.93
2022-10-07T12:23:17.713Z,61.80
2022-10-07T12:25:42.964Z,61.47
2022-10-07T12:27:46.534Z,61.46
2022-10-07T12:30:02.626Z,61.98
2022-10-07T12:33:01.230Z,61.91
2022-10-07T12:35:34.816Z,62.33
2022-10-07T12:37:45.624Z,62.19
2022-10-07T12:39:47.938Z,61.68
2022-10-07T12:41:51.117Z,61.69
2022-10-07T12:43:56.124Z,61.74
2022-10-07T12:45:58.793Z,61.56
2022-10-07T12:48:02.408Z,61.78
2022-10-07T12:50:13.063Z,62.35
2022-10-07T12:52:30.490Z,62.64
2022-10-07T12:54:37.605Z,62.80
2022-10-07T12:56:44.006Z,63.17
2022-10-07T12:59:14.465Z,63.50
2022-10-07T13:01:37.167Z,64.02
2022-10-07T13:04:05.936Z,64.04
2022-10-07T13:06:36.970Z,64.23
2022-10-07T13:09:02.876Z,64.20
2022-10-07T13:11:13.939Z,63.75
2022-10-07T13:13:34.850Z,64.42
2022-10-07T13:15:49.718Z,63.66
2022-10-07T13:17:58.685Z,63.68
2022-10-07T13:20:34.335Z,63.41
2022-10-07T13:22:36.569Z,63.42
2022-10-07T13:24:59.876Z,63.48
2022-10-07T13:27:02.126Z,63.79
2022-10-07T13:29:05.931Z,62.89
2022-10-07T13:31:23.108Z,62.93
2022-10-07T13:33:31.894Z,62.76
2022-10-07T13:35:39.340Z,63.39
2022-10-07T13:37:46.856Z,63.36
2022-10-07T13:39:48.906Z,63.47
2022-10-07T13:41:55.703Z,63.49
2022-10-07T13:44:06.256Z,63.80
2022-10-07T13:46:09.943Z,64.01
2022-10-07T13:48:17.357Z,63.41
2022-10-07T13:50:26.651Z,64.39
2022-10-07T13:52:31.671Z,64.62
2022-10-07T13:54:34.743Z,64.74
2022-10-07T13:56:41.898Z,65.06
2022-10-07T13:58:44.474Z,65.27
2022-10-07T14:00:49.101Z,65.81
2022-10-07T14:02:51.695Z,65.31
2022-10-07T14:05:05.213Z,65.02
2022-10-07T14:07:13.143Z,65.16
2022-10-07T14:09:35.424Z,65.10
2022-10-07T14:11:37.757Z,65.57
2022-10-07T14:13:42.651Z,65.31
2022-10-07T14:15:51.924Z,65.90
2022-10-07T14:18:04.697Z,65.72
2022-10-07T14:20:19.131Z,65.50
2022-10-07T14:22:31.431Z,66.02
2022-10-07T14:24:33.667Z,65.83
2022-10-07T14:26:43.789Z,66.35
2022-10-07T14:28:45.973Z,66.74
2022-10-07T14:31:26.688Z,66.98
2022-10-07T14:33:48.819Z,67.86
2022-10-07T14:36:15.448Z,68.20
2022-10-07T14:38:27.985Z,69.39
2022-10-07T14:40:30.069Z,69.25
2022-10-07T14:42:36.358Z,69.12
2022-10-07T14:44:38.687Z,69.37
2022-10-07T14:46:40.914Z,70.22
2022-10-07T14:48:43.232Z,69.93
2022-10-07T14:50:45.314Z,70.20
2022-10-07T14:52:52.560Z,70.80
2022-10-07T14:55:00.651Z,70.75
2022-10-07T14:57:02.823Z,71.14
2022-10-07T14:59:10.778Z,71.19
2022-10-07T15:01:12.942Z,71.41
2022-10-07T15:03:14.960Z,71.99
2022-10-07T15:05:18.092Z,72.33
2022-10-07T15:07:21.510Z,72.29
2022-10-07T15:09:23.720Z,72.82
2022-10-07T15:11:26.393Z,73.02
2022-10-07T15:13:29.266Z,73.59
2022-10-07T15:15:31.717Z,73.61
2022-10-07T15:17:33.725Z,74.22
2022-10-07T15:19:36.012Z,74.40
2022-10-07T15:21:38.228Z,75.14
2022-10-07T15:23:41.154Z,75.07
2022-10-07T15:25:43.489Z,75.82
2022-10-07T15:27:45.610Z,76.90
2022-10-07T15:29:47.721Z,77.01
2022-10-07T15:31:52.333Z,77.57
2022-10-07T15:33:57.304Z,78.23
2022-10-07T15:35:59.794Z,79.12
2022-10-07T15:38:03.977Z,79.55
2022-10-07T15:40:07.727Z,80.49
2022-10-07T15:42:10.059Z,80.58
2022-10-07T15:44:16.606Z,81.13
2022-10-07T15:46:18.692Z,81.06
2022-10-07T15:48:23.356Z,81.14
2022-10-07T15:50:25.630Z,81.13
2022-10-07T15:52:32.557Z,81.18
2022-10-07T15:54:35.745Z,81.49
2022-10-07T15:56:38.057Z,81.23
2022-10-07T15:58:41.230Z,81.56
2022-10-07T16:00:43.270Z,81.16
2022-10-07T16:02:46.664Z,81.53
2022-10-07T16:04:48.989Z,81.94
2022-10-07T16:06:54.209Z,82.14
2022-10-07T16:08:56.905Z,82.51
2022-10-07T16:11:03.879Z,82.40
2022-10-07T16:13:05.932Z,82.76
2022-10-07T16:15:08.337Z,82.78
2022-10-07T16:17:10.288Z,83.48
2022-10-07T16:19:12.421Z,83.02
2022-10-07T16:21:22.991Z,83.54
2022-10-07T16:23:25.118Z,83.82
2022-10-07T16:25:27.325Z,84.61
2022-10-07T16:27:49.511Z,84.84
2022-10-07T16:30:10.009Z,84.88
2022-10-07T16:32:12.154Z,85.27
2022-10-07T16:34:16.463Z,85.24
2022-10-07T16:36:23.431Z,85.56
2022-10-07T16:38:25.523Z,85.80
2022-10-07T16:40:27.578Z,85.86
2022-10-07T16:42:29.803Z,86.17
2022-10-07T16:44:31.935Z,86.51
2022-10-07T16:46:34.495Z,86.80
2022-10-07T16:48:41.545Z,86.77
2022-10-07T16:50:47.988Z,86.48
2022-10-07T16:52:50.264Z,86.67
2022-10-07T16:54:52.675Z,86.55
2022-10-07T16:56:58.349Z,87.04
2022-10-07T16:59:03.949Z,86.94
2022-10-07T17:01:12.854Z,86.33
2022-10-07T17:03:15.245Z,86.51
2022-10-07T17:05:20.845Z,87.12
2022-10-07T17:07:23.033Z,87.27
2022-10-07T17:09:25.448Z,87.94
2022-10-07T17:11:31.315Z,88.48
2022-10-07T17:13:34.516Z,88.79
2022-10-07T17:15:40.154Z,89.86
2022-10-07T17:17:42.358Z,90.12
2022-10-07T17:19:45.182Z,90.64
2022-10-07T17:21:49.512Z,91.29
2022-10-07T17:23:51.840Z,92.06
2022-10-07T17:25:54.506Z,92.75
2022-10-07T17:27:56.721Z,92.82
2022-10-07T17:29:58.936Z,93.70
2022-10-07T17:32:01.031Z,93.35
2022-10-07T17:34:07.772Z,93.85
2022-10-07T17:36:12.131Z,94.44
2022-10-07T17:38:14.631Z,94.92
2022-10-07T17:40:16.781Z,96.22
2022-10-07T17:42:18.924Z,96.07
2022-10-07T17:44:22.040Z,96.08
2022-10-07T17:46:26.794Z,96.61
2022-10-07T17:48:29.200Z,97.08
2022-10-07T17:50:31.573Z,98.10
2022-10-07T17:52:34.041Z,97.84
2022-10-07T17:54:37.384Z,98.20
2022-10-07T17:56:44.651Z,98.15
2022-10-07T17:58:48.691Z,98.98
2022-10-07T18:00:51.994Z,99.26
2022-10-07T18:02:54.172Z,99.65
2022-10-07T18:04:57.313Z,99.63
2022-10-07T18:06:59.514Z,100.00
2022-10-07T18:09:04.979Z,100.00
2022-10-07T18:11:08.297Z,100.00
2022-10-07T18:13:29.110Z,100.00
2022-10-07T18:15:31.355Z,100.00
2022-10-07T18:17:33.704Z,100.00
2022-10-07T18:19:35.965Z,100.00
2022-10-07T18:21:38.319Z,100.00
2022-10-07T18:23:46.946Z,100.00
2022-10-07T18:25:49.082Z,100.00
2022-10-07T18:27:53.051Z,100.00
2022-10-07T18:29:56.110Z,100.00
2022-10-07T18:31:59.122Z,100.00
2022-10-07T18:34:01.378Z,100.00
2022-10-07T18:36:24.928Z,100.00
2022-10-07T18:38:34.084Z,100.00
2022-10-07T18:40:36.395Z,100.00
2022-10-07T18:42:38.897Z,100.00
2022-10-07T18:44:41.118Z,100.00
2022-10-07T18:46:43.395Z,100.00
2022-10-07T18:48:48.887Z,100.00
2022-10-07T18:50:52.141Z,100.00
2022-10-07T18:52:54.290Z,100.00
2022-10-07T18:54:56.587Z,100.00
2022-10-07T18:56:58.953Z,100.00
2022-10-07T18:59:01.067Z,100.00
2022-10-07T19:01:17.994Z,100.00
2022-10-07T19:03:20.414Z,100.00
2022-10-07T19:05:22.727Z,100.00
2022-10-07T19:07:25.655Z,100.00
2022-10-07T19:09:27.741Z,100.00
2022-10-07T19:11:32.961Z,100.00
2022-10-07T19:13:54.479Z,100.00
2022-10-07T19:15:56.828Z,100.00
2022-10-07T19:17:58.803Z,100.00
2022-10-07T19:20:01.151Z,100.00
2022-10-07T19:22:05.437Z,100.00
2022-10-07T19:24:08.018Z,100.00
2022-10-07T19:26:12.470Z,100.00
2022-10-07T19:28:14.995Z,100.00
2022-10-07T19:30:17.343Z,100.00
2022-10-07T19:32:20.259Z,100.00
2022-10-07T19:34:23.033Z,100.00
2022-10-07T19:36:25.718Z,100.00
2022-10-07T19:38:27.970Z,100.00
2022-10-07T19:40:30.211Z,100.00
2022-10-07T19:42:32.919Z,100.00
2022-10-07T19:44:35.109Z,100.00
2022-10-07T19:46:38.556Z,100.00
2022-10-07T19:48:41.175Z,100.00
2022-10-07T19:50:43.437Z,100.00
2022-10-07T19:52:46.378Z,100.00
2022-10-07T19:54:50.021Z,100.00
2022-10-07T19:56:52.382Z,100.00
2022-10-07T19:58:55.647Z,100.00
2022-10-07T20:01:04.692Z,100.00
2022-10-07T20:03:07.121Z,100.00
2022-10-07T20:05:10.022Z,100.00
2022-10-07T20:07:12.613Z,100.00
2022-10-07T20:09:16.858Z,100.00
2022-10-07T20:11:19.485Z,100.00
2022-10-07T20:13:21.896Z,100.00
2022-10-07T20:15:23.964Z,100.00
2022-10-07T20:17:29.664Z,100.00
2022-10-07T20:19:32.203Z,100.00
2022-10-07T20:21:36.631Z,100.00
2022-10-07T20:23:48.513Z,100.00
2022-10-07T20:25:50.642Z,100.00
2022-10-07T20:27:52.867Z,100.00
2022-10-07T20:29:58.164Z,100.00
2022-10-07T20:32:00.324Z,100.00
2022-10-07T20:34:03.834Z,100.00
2022-10-07T20:36:10.618Z,100.00
2022-10-07T20:38:13.009Z,100.00
2022-10-07T20:40:34.943Z,100.00
2022-10-07T20:42:37.165Z,100.00
2022-10-07T20:44:39.453Z,100.00
2022-10-07T20:46:41.672Z,100.00
2022-10-07T20:48:45.777Z,100.00
2022-10-07T20:50:49.006Z,100.00
2022-10-07T20:52:51.487Z,100.00
2022-10-07T20:54:54.411Z,100.00
2022-10-07T20:56:58.230Z,100.00
2022-10-07T20:59:00.505Z,100.00
2022-10-07T21:01:10.438Z,100.00
2022-10-07T21:03:12.869Z,100.00
2022-10-07T21:05:15.672Z,100.00
2022-10-07T21:07:19.010Z,100.00
2022-10-07T21:09:21.142Z,100.00
2022-10-07T21:11:25.630Z,100.00
2022-10-07T21:13:28.420Z,100.00
2022-10-07T21:15:30.560Z,100.00
2022-10-07T21:17:34.523Z,100.00
2022-10-07T21:19:36.857Z,100.00
2022-10-07T21:21:39.439Z,100.00
2022-10-07T21:23:41.492Z,100.00
2022-10-07T21:25:43.669Z,100.00
2022-10-07T21:27:45.836Z,100.00
2022-10-07T21:29:48.927Z,100.00
2022-10-07T21:31:53.284Z,100.00
2022-10-07T21:33:55.464Z,100.00
2022-10-07T21:36:01.717Z,100.00
2022-10-07T21:38:06.589Z,100.00
2022-10-07T21:40:09.166Z,100.00
2022-10-07T21:42:11.336Z,100.00
2022-10-07T21:44:14.253Z,100.00
2022-10-07T21:46:16.785Z,100.00
2022-10-07T21:48:19.687Z,100.00
2022-10-07T21:50:21.921Z,100.00
2022-10-07T21:52:24.284Z,100.00
2022-10-07T21:54:26.374Z,100.00
2022-10-07T21:56:30.844Z,100.00
2022-10-07T21:58:33.668Z,100.00
2022-10-07T22:00:36.448Z,100.00
2022-10-07T22:02:39.484Z,100.00
2022-10-07T22:04:42.553Z,100.00
2022-10-07T22:07:03.263Z,100.00
2022-10-07T22:09:05.405Z,100.00
2022-10-07T22:11:13.854Z,100.00
2022-10-07T22:13:15.960Z,100.00
2022-10-07T22:15:18.155Z,100.00
2022-10-07T22:17:20.326Z,100.00
2022-10-07T22:19:23.167Z,100.00
2022-10-07T22:21:28.219Z,100.00
2022-10-07T22:23:30.513Z,100.00
2022-10-07T22:25:32.617Z,100.00
2022-10-07T22:27:34.873Z,100.00
2022-10-07T22:29:37.588Z,100.00
2022-10-07T22:31:39.646Z,100.00
2022-10-07T22:33:42.913Z,100.00
2022-10-07T22:35:45.101Z,100.00
2022-10-07T22:37:47.202Z,100.00
2022-10-07T22:39:49.649Z,100.00
2022-10-07T22:41:51.632Z,100.00
2022-10-07T22:43:54.139Z,100.00
2022-10-07T22:46:00.015Z,100.00
2022-10-07T22:48:04.017Z,100.00
2022-10-07T22:50:10.070Z,100.00
2022-10-07T22:52:12.229Z,100.00
2022-10-07T22:54:14.590Z,100.00
2022-10-07T22:56:18.134Z,100.00
2022-10-07T22:58:20.277Z,100.00
2022-10-07T23:00:22.623Z,100.00
2022-10-07T23:02:24.921Z,100.00
2022-10-07T23:04:27.142Z,100.00
2022-10-07T23:06:32.716Z,100.00
2022-10-07T23:08:35.357Z,100.00
2022-10-07T23:10:37.632Z,100.00
2022-10-07T23:12:39.911Z,100.00
2022-10-07T23:14:43.263Z,100.00
2022-10-07T23:16:45.476Z,100.00
2022-10-07T23:18:49.342Z,100.00
2022-10-07T23:21:09.834Z,100.00
2022-10-07T23:23:12.549Z,100.00
2022-10-07T23:25:14.941Z,100.00
2022-10-07T23:27:17.523Z,100.00
2022-10-07T23:29:20.661Z,100.00
2022-10-07T23:31:28.529Z,100.00
2022-10-07T23:33:33.497Z,100.00
2022-10-07T23:35:37.184Z,100.00
2022-10-07T23:37:40.281Z,100.00
2022-10-07T23:39:43.444Z,100.00
2022-10-07T23:41:45.937Z,100.00
2022-10-07T23:43:52.706Z,100.00
2022-10-07T23:45:55.428Z,100.00
2022-10-07T23:47:57.537Z,100.00
2022-10-07T23:49:59.947Z,100.00
2022-10-07T23:52:02.171Z,100.00
2022-10-07T23:54:05.174Z,100.00
2022-10-07T23:56:08.102Z,100.00
2022-10-07T23:58:10.310Z,100.00
